Skellingthorpe, United Kingdom
Current Conditions -  °F | °C
As of 7:50 AM on Thursday 27 Nov 2014 (Local Time) from EGXP Reporting Station
Moderate Fog Moderate Fog  
Wind Chill: 44°   Ceiling: Unl
Heat Index: 46°   Visibility: 0.12mi
Dew Point: 46°   Wind: 5mph
Humidity: 100%   Direction: 100°E
Pressure: 29.62"   Gusts: NA
Location:  53.24°N, 0.62°W
Report Text: EGXP 270750Z 10004KT 0200 FG VV/// 08/08 Q1003 RED
Loading
Personal Weather Stations






























Interactive Weather Map New forecast layout! Learn more

10-Day Weather Forecast

Advertisements
Track Severe Weather on mobile